KADH

Ada Regional Airport

Ada, Oklahoma, USA
METAR KADH 241435Z AUTO 15007KT 10SM BKN034 BKN040 BKN055 21/20 A2990 RMK AO2
Observed Flight Rules
Jun-24 @ 14:35 UTC (27 minutes ago) Visual Flight Rules
Wind Visibility Clouds
150° at 7 knots 10 miles
  • Broken at 3,400' AGL
  • Broken at 4,000' AGL
  • Broken at 5,500' AGL
Temperatures Readings
Current 21°C / 70°F
Dewpoint 20°C / 68°F
Humidity 94%
Altimeter 29.9" Hg
Pressure 1013 hPa
Elevation 308
METAR KADH 241435Z AUTO 15007KT 10SM BKN034 BKN040 BKN055 21/20 A2990 RMK AO2
Observed Flight Rules
Jun-24 @ 14:35 UTC
(27 minutes ago)
VFR
Wind Visibility
150° at 7 knots 10 miles
Clouds
  • Broken at 3,400' AGL
  • Broken at 4,000' AGL
  • Broken at 5,500' AGL
Temperature Dewpoint
21°C / 70°F 20°C / 68°F
Humidity Altimeter Pressure
94% 29.9" Hg 1013 hPa